createdAt,value
2018-08-04T00:00:02.994Z,9.68
2018-08-04T00:02:32.563Z,10.90
2018-08-04T00:05:02.204Z,14.45
2018-08-04T00:07:31.494Z,12.60
2018-08-04T00:10:00.367Z,12.90
2018-08-04T00:12:29.805Z,12.37
2018-08-04T00:14:58.763Z,13.03
2018-08-04T00:17:27.754Z,14.13
2018-08-04T00:19:56.792Z,14.65
2018-08-04T00:22:26.077Z,16.37
2018-08-04T00:24:55.417Z,17.77
2018-08-04T00:27:24.797Z,15.65
2018-08-04T00:29:53.772Z,16.97
2018-08-04T00:32:23.782Z,15.18
2018-08-04T00:34:52.999Z,16.32
2018-08-04T00:37:21.878Z,16.82
2018-08-04T00:39:50.968Z,18.42
2018-08-04T00:42:20.290Z,20.10
2018-08-04T00:44:49.979Z,19.48
2018-08-04T00:47:18.795Z,18.92
2018-08-04T00:49:48.570Z,17.77
2018-08-04T00:52:17.584Z,19.85
2018-08-04T00:54:46.791Z,18.75
2018-08-04T00:57:16.114Z,18.35
2018-08-04T00:59:45.196Z,19.60
2018-08-04T01:02:14.283Z,18.85
2018-08-04T01:04:44.546Z,26.12
2018-08-04T01:07:13.290Z,25.23
2018-08-04T01:09:42.185Z,22.15
2018-08-04T01:12:12.019Z,20.90
2018-08-04T01:14:40.992Z,21.02
2018-08-04T01:17:09.854Z,21.95
2018-08-04T01:19:39.512Z,19.15
2018-08-04T01:22:09.104Z,19.65
2018-08-04T01:24:38.194Z,18.48
2018-08-04T01:27:07.431Z,18.60
2018-08-04T01:29:36.535Z,17.55
2018-08-04T01:32:05.502Z,16.82
2018-08-04T01:34:34.825Z,17.87
2018-08-04T01:37:03.891Z,18.45
2018-08-04T01:39:33.094Z,17.92
2018-08-04T01:42:03.454Z,19.07
2018-08-04T01:44:33.304Z,20.80
2018-08-04T01:47:02.416Z,21.87
2018-08-04T01:49:32.158Z,22.65
2018-08-04T01:52:01.047Z,22.80
2018-08-04T01:54:30.133Z,27.82
2018-08-04T01:56:59.594Z,22.40
2018-08-04T01:59:28.427Z,21.90
2018-08-04T02:01:57.428Z,22.45
2018-08-04T02:04:26.738Z,23.40
2018-08-04T02:06:55.827Z,23.57
2018-08-04T02:09:24.822Z,24.32
2018-08-04T02:11:54.035Z,24.63
2018-08-04T02:14:23.114Z,23.57
2018-08-04T02:16:52.102Z,26.12
2018-08-04T02:19:21.427Z,24.67
2018-08-04T02:21:51.179Z,27.35
2018-08-04T02:24:20.723Z,27.00
2018-08-04T02:26:50.039Z,25.82
2018-08-04T02:29:19.210Z,22.75
2018-08-04T02:31:48.503Z,24.43
2018-08-04T02:34:18.123Z,22.35
2018-08-04T02:36:46.920Z,21.85
2018-08-04T02:39:16.407Z,21.85
2018-08-04T02:41:45.750Z,22.45
2018-08-04T02:44:14.631Z,22.82
2018-08-04T02:46:43.524Z,24.92
2018-08-04T02:49:12.947Z,25.65
2018-08-04T02:51:41.808Z,26.82
2018-08-04T02:54:10.975Z,23.27
2018-08-04T02:56:39.934Z,24.35
2018-08-04T02:59:09.063Z,27.40
2018-08-04T03:01:38.215Z,24.67
2018-08-04T03:04:07.414Z,30.08
2018-08-04T03:06:36.495Z,24.82
2018-08-04T03:09:08.802Z,27.30
2018-08-04T03:11:38.079Z,24.85
2018-08-04T03:14:07.547Z,26.73
2018-08-04T03:16:36.842Z,28.62
2018-08-04T03:19:05.972Z,29.63
2018-08-04T03:21:34.731Z,25.70
2018-08-04T03:24:04.591Z,25.65
2018-08-04T03:26:33.443Z,24.50
2018-08-04T03:29:02.765Z,26.85
2018-08-04T03:31:31.954Z,28.42
2018-08-04T03:34:00.998Z,26.95
2018-08-04T03:36:30.318Z,26.87
2018-08-04T03:38:59.670Z,27.48
2018-08-04T03:41:29.388Z,29.92
2018-08-04T03:43:58.473Z,32.05
2018-08-04T03:46:27.504Z,32.90
2018-08-04T03:48:56.676Z,27.77
2018-08-04T03:51:27.427Z,24.82
2018-08-04T03:53:56.737Z,22.17
2018-08-04T03:56:25.821Z,18.77
2018-08-04T03:58:54.488Z,20.15
2018-08-04T04:01:24.441Z,26.20
2018-08-04T04:03:53.400Z,27.85
2018-08-04T04:06:22.201Z,22.67
2018-08-04T04:08:51.112Z,24.75
2018-08-04T04:11:20.067Z,21.12
2018-08-04T04:13:49.538Z,23.00
2018-08-04T04:16:18.743Z,21.35
2018-08-04T04:18:47.674Z,26.33
2018-08-04T04:21:16.743Z,28.87
2018-08-04T04:23:46.228Z,24.25
2018-08-04T04:26:15.250Z,20.37
2018-08-04T04:28:44.060Z,23.05
2018-08-04T04:31:13.365Z,21.68
2018-08-04T04:33:42.326Z,19.82
2018-08-04T04:36:11.538Z,17.20
2018-08-04T04:38:40.387Z,20.70
2018-08-04T04:41:09.448Z,17.95
2018-08-04T04:43:38.643Z,16.85
2018-08-04T04:46:07.914Z,17.57
2018-08-04T04:48:36.948Z,22.32
2018-08-04T04:51:06.239Z,10.98
2018-08-04T04:53:36.467Z,16.42
2018-08-04T04:56:05.554Z,11.97
2018-08-04T04:58:34.442Z,16.30
2018-08-04T05:01:03.311Z,17.95
2018-08-04T05:03:32.241Z,9.85
2018-08-04T05:06:01.365Z,17.90
2018-08-04T05:08:30.654Z,10.23
2018-08-04T05:11:00.130Z,9.55
2018-08-04T05:13:29.040Z,15.23
2018-08-04T05:15:58.782Z,9.70
2018-08-04T05:18:28.403Z,10.75
2018-08-04T05:20:57.955Z,8.73
2018-08-04T05:23:27.099Z,11.25
2018-08-04T05:25:55.958Z,9.78
2018-08-04T05:28:24.939Z,13.85
2018-08-04T05:30:53.983Z,9.65
2018-08-04T05:33:23.131Z,9.23
2018-08-04T05:35:51.922Z,9.90
2018-08-04T05:38:21.063Z,12.18
2018-08-04T05:40:50.242Z,10.28
2018-08-04T05:43:19.388Z,14.58
2018-08-04T05:45:48.842Z,9.20
2018-08-04T05:48:17.825Z,9.85
2018-08-04T05:50:47.361Z,11.38
2018-08-04T05:53:16.798Z,11.15
2018-08-04T05:55:45.930Z,16.67
2018-08-04T05:58:14.710Z,12.45
2018-08-04T06:00:43.947Z,13.15
2018-08-04T06:03:12.909Z,13.28
2018-08-04T06:05:41.695Z,16.70
2018-08-04T06:08:10.791Z,15.08
2018-08-04T06:10:39.813Z,18.12
2018-08-04T06:13:08.695Z,17.27
2018-08-04T06:15:37.882Z,15.23
2018-08-04T06:18:07.097Z,13.10
2018-08-04T06:20:36.407Z,10.18
2018-08-04T06:23:05.823Z,11.20
2018-08-04T06:25:34.994Z,11.57
2018-08-04T06:28:04.105Z,8.95
2018-08-04T06:30:33.068Z,10.00
2018-08-04T06:33:02.183Z,11.20
2018-08-04T06:35:31.048Z,9.65
2018-08-04T06:38:00.291Z,7.80
2018-08-04T06:40:29.431Z,8.93
2018-08-04T06:42:58.219Z,8.63
2018-08-04T06:45:27.405Z,12.73
2018-08-04T06:47:56.647Z,9.60
2018-08-04T06:50:25.809Z,8.08
2018-08-04T06:52:55.496Z,14.75
2018-08-04T06:55:24.572Z,7.10
2018-08-04T06:57:53.715Z,8.23
2018-08-04T07:00:22.859Z,7.87
2018-08-04T07:02:51.707Z,13.93
2018-08-04T07:05:20.778Z,10.85
2018-08-04T07:07:50.255Z,9.33
2018-08-04T07:10:19.326Z,14.98
2018-08-04T07:12:48.174Z,6.62
2018-08-04T07:15:18.132Z,8.15
2018-08-04T07:17:47.239Z,7.95
2018-08-04T07:20:15.924Z,11.65
2018-08-04T07:22:45.539Z,7.47
2018-08-04T07:25:14.511Z,5.20
2018-08-04T07:27:43.623Z,10.35
2018-08-04T07:30:15.498Z,9.83
2018-08-04T07:32:45.648Z,13.48
2018-08-04T07:35:14.505Z,6.00
2018-08-04T07:37:44.331Z,5.62
2018-08-04T07:40:13.501Z,4.03
2018-08-04T07:42:42.934Z,7.22
2018-08-04T07:45:12.093Z,2.20
2018-08-04T07:47:41.612Z,2.20
2018-08-04T07:50:10.535Z,1.75
2018-08-04T07:52:39.819Z,2.95
2018-08-04T07:55:08.926Z,2.37
2018-08-04T07:57:37.791Z,5.17
2018-08-04T08:00:07.872Z,3.05
2018-08-04T08:02:36.699Z,2.15
2018-08-04T08:05:06.033Z,2.62
2018-08-04T08:07:35.434Z,2.22
2018-08-04T08:10:04.999Z,3.55
2018-08-04T08:12:34.981Z,4.05
2018-08-04T08:15:04.406Z,4.47
2018-08-04T08:17:33.226Z,6.92
2018-08-04T08:20:02.415Z,4.42
2018-08-04T08:22:40.475Z,5.90
2018-08-04T08:25:10.933Z,4.20
2018-08-04T08:27:40.844Z,3.00
2018-08-04T08:30:14.047Z,3.15
2018-08-04T08:32:43.633Z,3.58
2018-08-04T08:35:12.727Z,4.45
2018-08-04T08:37:41.999Z,4.67
2018-08-04T08:40:11.023Z,5.42
2018-08-04T08:42:39.935Z,1.60
2018-08-04T08:45:10.096Z,4.85
2018-08-04T08:47:39.289Z,2.45
2018-08-04T08:50:10.467Z,2.27
2018-08-04T08:52:40.940Z,8.38
2018-08-04T08:55:10.531Z,1.75
2018-08-04T08:57:39.571Z,3.62
2018-08-04T09:00:10.494Z,8.23
2018-08-04T09:02:39.507Z,5.67
2018-08-04T09:05:09.781Z,6.55
2018-08-04T09:07:39.122Z,2.58
2018-08-04T09:10:11.198Z,4.87
2018-08-04T09:12:40.145Z,1.42
2018-08-04T09:15:09.484Z,4.17
2018-08-04T09:17:38.484Z,2.92
2018-08-04T09:20:07.956Z,2.35
2018-08-04T09:22:37.503Z,1.57
2018-08-04T09:25:07.972Z,0.95
2018-08-04T09:27:38.031Z,2.20
2018-08-04T09:30:09.003Z,1.95
2018-08-04T09:32:37.883Z,4.60
2018-08-04T09:35:07.502Z,3.40
2018-08-04T09:37:37.153Z,4.25
2018-08-04T09:40:08.066Z,1.80
2018-08-04T09:42:37.022Z,3.60
2018-08-04T09:45:07.358Z,2.15
2018-08-04T09:47:37.015Z,5.33
2018-08-04T09:50:07.890Z,4.58
2018-08-04T09:52:37.070Z,2.55
2018-08-04T09:55:07.087Z,1.85
2018-08-04T09:57:36.671Z,3.70
2018-08-04T10:00:08.818Z,0.65
2018-08-04T10:02:37.911Z,2.55
2018-08-04T10:05:07.103Z,1.42
2018-08-04T10:07:37.247Z,1.52
2018-08-04T10:10:06.526Z,2.12
2018-08-04T10:12:35.827Z,2.25
2018-08-04T10:15:05.576Z,1.02
2018-08-04T10:17:35.063Z,1.70
2018-08-04T10:20:03.888Z,0.70
2018-08-04T10:22:33.186Z,1.37
2018-08-04T10:25:02.315Z,1.25
2018-08-04T10:27:31.787Z,1.65
2018-08-04T10:30:01.018Z,1.45
2018-08-04T10:32:30.552Z,0.85
2018-08-04T10:34:59.589Z,2.92
2018-08-04T10:37:28.830Z,1.37
2018-08-04T10:39:58.702Z,2.27
2018-08-04T10:42:28.332Z,2.27
2018-08-04T10:44:59.135Z,2.27
2018-08-04T10:47:34.751Z,1.15
2018-08-04T10:50:04.983Z,2.98
2018-08-04T10:52:34.273Z,1.60
2018-08-04T10:55:04.037Z,1.20
2018-08-04T10:57:33.403Z,2.92
2018-08-04T11:00:02.569Z,2.95
2018-08-04T11:02:31.998Z,3.37
2018-08-04T11:05:01.318Z,1.47
2018-08-04T11:07:30.069Z,1.55
2018-08-04T11:09:58.881Z,1.02
2018-08-04T11:12:28.247Z,2.10
2018-08-04T11:14:57.279Z,2.12
2018-08-04T11:17:26.064Z,1.05
2018-08-04T11:19:55.670Z,2.77
2018-08-04T11:22:24.761Z,0.60
2018-08-04T11:24:53.818Z,3.27
2018-08-04T11:27:23.130Z,0.95
2018-08-04T11:29:52.051Z,2.30
2018-08-04T11:32:20.852Z,2.47
2018-08-04T11:34:50.359Z,1.30
2018-08-04T11:37:19.627Z,2.15
2018-08-04T11:39:48.547Z,1.52
2018-08-04T11:42:17.671Z,0.85
2018-08-04T11:44:46.500Z,2.05
2018-08-04T11:47:15.417Z,1.02
2018-08-04T11:49:44.855Z,1.12
2018-08-04T11:52:14.835Z,0.60
2018-08-04T11:54:43.630Z,1.20
2018-08-04T11:57:12.930Z,1.92
2018-08-04T11:59:41.833Z,4.87
2018-08-04T12:02:11.347Z,0.80
2018-08-04T12:04:41.191Z,1.42
2018-08-04T12:07:10.276Z,1.82
2018-08-04T12:09:39.141Z,0.90
2018-08-04T12:12:08.767Z,2.87
2018-08-04T12:14:37.641Z,3.70
2018-08-04T12:17:06.329Z,3.05
2018-08-04T12:19:35.414Z,0.90
2018-08-04T12:22:04.110Z,0.72
2018-08-04T12:24:33.350Z,0.70
2018-08-04T12:27:02.802Z,2.17
2018-08-04T12:29:31.800Z,1.10
2018-08-04T12:32:01.229Z,3.60
2018-08-04T12:34:30.323Z,1.37
2018-08-04T12:36:59.571Z,1.57
2018-08-04T12:39:28.211Z,5.08
2018-08-04T12:41:57.935Z,1.80
2018-08-04T12:44:27.011Z,7.33
2018-08-04T12:46:56.248Z,2.70
2018-08-04T12:49:25.641Z,3.35
2018-08-04T12:51:54.970Z,1.95
2018-08-04T12:54:23.914Z,2.50
2018-08-04T12:56:53.131Z,2.72
2018-08-04T12:59:21.899Z,1.62
2018-08-04T13:01:51.010Z,2.05
2018-08-04T13:04:20.334Z,1.30
2018-08-04T13:06:49.079Z,2.25
2018-08-04T13:09:18.601Z,3.30
2018-08-04T13:11:47.812Z,2.35
2018-08-04T13:14:17.246Z,2.35
2018-08-04T13:16:46.465Z,0.95
2018-08-04T13:19:16.019Z,2.35
2018-08-04T13:21:45.099Z,1.95
2018-08-04T13:24:14.719Z,0.90
2018-08-04T13:26:44.110Z,2.77
2018-08-04T13:29:13.196Z,1.72
2018-08-04T13:31:42.263Z,2.92
2018-08-04T13:34:11.712Z,3.98
2018-08-04T13:36:40.503Z,0.70
2018-08-04T13:39:10.603Z,2.20
2018-08-04T13:41:41.188Z,3.70
2018-08-04T13:44:10.976Z,2.27
2018-08-04T13:46:40.372Z,2.05
2018-08-04T13:49:09.677Z,0.82
2018-08-04T13:51:38.854Z,1.25
2018-08-04T13:54:07.959Z,1.75
2018-08-04T13:56:37.213Z,1.25
2018-08-04T13:59:06.257Z,1.15
2018-08-04T14:01:35.248Z,2.10
2018-08-04T14:04:04.678Z,0.95
2018-08-04T14:06:33.661Z,0.82
2018-08-04T14:09:02.554Z,1.95
2018-08-04T14:11:31.538Z,3.05
2018-08-04T14:14:00.225Z,2.05
2018-08-04T14:16:29.235Z,3.87
2018-08-04T14:18:58.547Z,1.47
2018-08-04T14:21:27.858Z,3.12
2018-08-04T14:23:56.915Z,0.78
2018-08-04T14:26:26.322Z,2.67
2018-08-04T14:28:55.399Z,1.62
2018-08-04T14:31:24.512Z,2.65
2018-08-04T14:33:53.783Z,1.67
2018-08-04T14:36:23.059Z,1.70
2018-08-04T14:38:52.387Z,1.30
2018-08-04T14:41:21.734Z,3.10
2018-08-04T14:43:50.883Z,0.82
2018-08-04T14:46:20.083Z,4.00
2018-08-04T14:48:49.231Z,1.25
2018-08-04T14:51:18.512Z,1.80
2018-08-04T14:53:47.509Z,1.87
2018-08-04T14:56:16.547Z,3.02
2018-08-04T14:58:45.803Z,3.90
2018-08-04T15:01:15.008Z,5.15
2018-08-04T15:03:44.023Z,3.40
2018-08-04T15:06:13.093Z,1.47
2018-08-04T15:08:42.875Z,0.82
2018-08-04T15:11:12.013Z,3.52
2018-08-04T15:13:40.996Z,2.15
2018-08-04T15:16:10.282Z,1.95
2018-08-04T15:18:40.956Z,4.45
2018-08-04T15:21:10.443Z,2.05
2018-08-04T15:23:40.559Z,1.80
2018-08-04T15:26:09.379Z,2.55
2018-08-04T15:28:38.605Z,3.90
2018-08-04T15:31:07.666Z,0.80
2018-08-04T15:33:37.255Z,2.15
2018-08-04T15:36:06.459Z,0.80
2018-08-04T15:38:35.539Z,0.90
2018-08-04T15:41:04.381Z,0.70
2018-08-04T15:43:33.148Z,0.93
2018-08-04T15:46:02.229Z,1.95
2018-08-04T15:48:32.079Z,4.55
2018-08-04T15:51:01.024Z,1.30
2018-08-04T15:53:30.283Z,1.20
2018-08-04T15:56:00.557Z,1.00
2018-08-04T15:58:31.047Z,1.77
2018-08-04T16:01:00.601Z,5.08
2018-08-04T16:03:29.815Z,2.05
2018-08-04T16:05:58.626Z,2.33
2018-08-04T16:08:27.413Z,2.17
2018-08-04T16:10:57.247Z,3.05
2018-08-04T16:13:26.468Z,1.90
2018-08-04T16:15:55.530Z,3.92
2018-08-04T16:18:24.638Z,4.05
2018-08-04T16:20:54.348Z,2.80
2018-08-04T16:23:23.546Z,2.02
2018-08-04T16:25:53.061Z,1.32
2018-08-04T16:28:22.424Z,1.95
2018-08-04T16:30:51.427Z,2.20
2018-08-04T16:33:20.898Z,2.62
2018-08-04T16:35:50.059Z,2.35
2018-08-04T16:38:21.530Z,4.78
2018-08-04T16:40:52.064Z,3.95
2018-08-04T16:43:21.293Z,2.75
2018-08-04T16:45:50.082Z,6.00
2018-08-04T16:48:19.494Z,2.15
2018-08-04T16:50:48.570Z,2.10
2018-08-04T16:53:17.681Z,2.65
2018-08-04T16:55:47.191Z,1.85
2018-08-04T16:58:16.687Z,3.05
2018-08-04T17:00:46.003Z,1.67
2018-08-04T17:03:15.136Z,2.87
2018-08-04T17:05:44.107Z,2.95
2018-08-04T17:08:12.943Z,1.90
2018-08-04T17:10:42.244Z,1.90
2018-08-04T17:13:11.937Z,1.45
2018-08-04T17:15:42.774Z,1.50
2018-08-04T17:18:12.236Z,2.25
2018-08-04T17:20:41.431Z,1.85
2018-08-04T17:23:10.710Z,1.47
2018-08-04T17:25:39.954Z,3.02
2018-08-04T17:28:08.829Z,7.12
2018-08-04T17:30:37.444Z,2.52
2018-08-04T17:33:07.128Z,1.90
2018-08-04T17:35:36.304Z,4.03
2018-08-04T17:38:05.310Z,5.35
2018-08-04T17:40:34.738Z,4.05
2018-08-04T17:43:03.495Z,3.12
2018-08-04T17:45:32.468Z,2.08
2018-08-04T17:48:01.577Z,3.15
2018-08-04T17:50:31.207Z,2.75
2018-08-04T17:53:00.811Z,6.42
2018-08-04T17:55:30.127Z,2.72
2018-08-04T17:57:59.403Z,5.87
2018-08-04T18:00:28.608Z,6.10
2018-08-04T18:02:57.759Z,3.15
2018-08-04T18:05:26.813Z,5.00
2018-08-04T18:07:55.826Z,2.65
2018-08-04T18:10:25.110Z,5.70
2018-08-04T18:12:54.248Z,2.72
2018-08-04T18:15:23.090Z,3.33
2018-08-04T18:17:52.158Z,2.37
2018-08-04T18:20:21.079Z,4.28
2018-08-04T18:22:50.480Z,6.58
2018-08-04T18:25:20.217Z,3.95
2018-08-04T18:27:49.099Z,5.58
2018-08-04T18:30:18.393Z,9.13
2018-08-04T18:32:47.907Z,11.75
2018-08-04T18:35:17.694Z,3.72
2018-08-04T18:37:46.821Z,2.45
2018-08-04T18:40:15.940Z,3.52
2018-08-04T18:42:44.832Z,18.85
2018-08-04T18:45:13.790Z,3.67
2018-08-04T18:47:43.103Z,8.88
2018-08-04T18:50:12.300Z,8.28
2018-08-04T18:52:41.296Z,5.40
2018-08-04T18:55:10.811Z,6.15
2018-08-04T18:57:39.664Z,6.10
2018-08-04T19:00:09.294Z,8.05
2018-08-04T19:02:38.793Z,6.12
2018-08-04T19:05:07.527Z,11.05
2018-08-04T19:07:36.675Z,8.98
2018-08-04T19:10:06.207Z,7.28
2018-08-04T19:12:35.383Z,8.93
2018-08-04T19:15:04.699Z,8.95
2018-08-04T19:17:34.111Z,8.38
2018-08-04T19:20:03.247Z,9.05
2018-08-04T19:22:32.505Z,10.88
2018-08-04T19:25:01.664Z,9.53
2018-08-04T19:27:30.764Z,9.08
2018-08-04T19:30:00.179Z,6.20
2018-08-04T19:32:29.836Z,14.83
2018-08-04T19:34:58.715Z,10.98
2018-08-04T19:37:27.800Z,15.83
2018-08-04T19:39:57.908Z,10.03
2018-08-04T19:42:26.919Z,18.80
2018-08-04T19:44:55.912Z,7.60
2018-08-04T19:47:25.047Z,8.85
2018-08-04T19:49:53.998Z,6.17
2018-08-04T19:52:23.039Z,11.25
2018-08-04T19:54:52.510Z,12.10
2018-08-04T19:57:21.696Z,4.50
2018-08-04T19:59:50.595Z,11.00
2018-08-04T20:02:19.911Z,6.40
2018-08-04T20:04:48.777Z,7.30
2018-08-04T20:07:17.592Z,5.53
2018-08-04T20:09:47.279Z,10.95
2018-08-04T20:12:16.183Z,4.95
2018-08-04T20:14:45.390Z,6.05
2018-08-04T20:17:14.795Z,5.37
2018-08-04T20:19:44.162Z,6.83
2018-08-04T20:22:16.313Z,3.60
2018-08-04T20:24:45.658Z,3.40
2018-08-04T20:27:15.372Z,3.98
2018-08-04T20:29:44.664Z,8.98
2018-08-04T20:32:13.745Z,7.42
2018-08-04T20:34:42.541Z,8.60
2018-08-04T20:37:11.668Z,10.93
2018-08-04T20:39:40.971Z,5.33
2018-08-04T20:42:09.968Z,8.48
2018-08-04T20:44:39.329Z,8.23
2018-08-04T20:47:08.875Z,13.65
2018-08-04T20:49:38.567Z,17.35
2018-08-04T20:52:07.911Z,14.55
2018-08-04T20:54:37.158Z,6.55
2018-08-04T20:57:06.147Z,10.65
2018-08-04T20:59:35.482Z,14.73
2018-08-04T21:02:05.601Z,7.87
2018-08-04T21:04:36.099Z,10.18
2018-08-04T21:07:05.505Z,11.75
2018-08-04T21:09:35.168Z,6.58
2018-08-04T21:12:04.887Z,11.18
2018-08-04T21:14:33.834Z,11.90
2018-08-04T21:17:02.628Z,12.20
2018-08-04T21:19:31.629Z,13.53
2018-08-04T21:22:00.575Z,13.25
2018-08-04T21:24:29.724Z,14.35
2018-08-04T21:26:59.870Z,14.07
2018-08-04T21:29:29.169Z,17.15
2018-08-04T21:31:58.534Z,19.82
2018-08-04T21:34:27.856Z,22.07
2018-08-04T21:36:56.783Z,18.67
2018-08-04T21:39:25.630Z,19.00
2018-08-04T21:41:55.190Z,18.95
2018-08-04T21:44:24.014Z,19.87
2018-08-04T21:46:54.029Z,15.40
2018-08-04T21:49:23.063Z,20.30
2018-08-04T21:51:52.095Z,21.50
2018-08-04T21:54:21.030Z,15.90
2018-08-04T21:56:50.630Z,14.53
2018-08-04T21:59:20.963Z,17.98
2018-08-04T22:01:56.694Z,17.40
2018-08-04T22:04:26.462Z,16.27
2018-08-04T22:08:03.979Z,13.43
2018-08-04T22:10:34.305Z,15.03
2018-08-04T22:13:03.480Z,19.30
2018-08-04T22:15:32.871Z,15.35
2018-08-04T22:18:02.033Z,16.37
2018-08-04T22:20:31.403Z,14.53
2018-08-04T22:23:00.700Z,15.75
2018-08-04T22:25:30.702Z,11.15
2018-08-04T22:28:00.234Z,10.68
2018-08-04T22:30:29.529Z,8.43
2018-08-04T22:32:58.579Z,13.05
2018-08-04T22:35:27.806Z,14.73
2018-08-04T22:37:57.302Z,12.47
2018-08-04T22:40:26.496Z,13.00
2018-08-04T22:42:55.664Z,11.97
2018-08-04T22:46:03.353Z,10.45
2018-08-04T22:48:32.619Z,7.75
2018-08-04T22:51:01.723Z,15.25
2018-08-04T22:53:31.294Z,13.13
2018-08-04T22:56:00.483Z,16.93
2018-08-04T22:58:29.690Z,12.75
2018-08-04T23:00:59.276Z,16.90
2018-08-04T23:03:28.365Z,14.40
2018-08-04T23:05:57.497Z,20.00
2018-08-04T23:08:26.802Z,14.45
2018-08-04T23:10:56.078Z,17.80
2018-08-04T23:13:25.393Z,32.13
2018-08-04T23:15:55.992Z,17.23
2018-08-04T23:18:25.104Z,15.75
2018-08-04T23:20:54.310Z,19.60
2018-08-04T23:23:23.784Z,12.80
2018-08-04T23:25:54.059Z,9.78
2018-08-04T23:28:23.126Z,11.97
2018-08-04T23:30:52.598Z,13.80
2018-08-04T23:33:21.826Z,13.08
2018-08-04T23:35:51.681Z,8.98
2018-08-04T23:38:21.298Z,16.37
2018-08-04T23:40:50.590Z,11.03
2018-08-04T23:43:19.759Z,13.15
2018-08-04T23:45:48.792Z,11.28
2018-08-04T23:48:17.746Z,9.28
2018-08-04T23:50:46.671Z,10.90
2018-08-04T23:53:16.206Z,10.58
2018-08-04T23:55:45.172Z,8.88
2018-08-04T23:58:14.155Z,8.80
